Aérodrome :
LOGIN :

S'inscrire | Disclaimer

   EN    FR    IT 

 










Légende :    VFR   VFR Marginal   IFR   IFR Intensif   IFR Très Intensif
Visi : 
Plafond : 
>= 8 km
>= 3000ft
5 à 8 km
1000 à 3000 ft
1500m à 5 km
500 à 1000 ft
800 à 1500m
200 à 500 ft
< 800m
< 200 ft
Symboles :   Orages  Brouillard  Fortes neiges  Fortes précipitations  Vent > 20 kt
SIGMETs :   Divers  Orages  Givrage  Turbulence  Onde Orograph.  Cendres Volcan.






- Altitude de l'aérodrome : 33 ft
- Code IATA : MHZ


EGUN - RAF Mildenhall

DERNIER METAR :
  • 031616Z AUTO 14006KT 9999 -RA OVC023 07/07 A2891 RMK AO2 SLP793 FZRANO $

METARs EXPIRÉS :
  • 031611Z AUTO 15008KT 9999 -RA OVC021 07/07 A2891 RMK AO2 SLP793 FZRANO $
  • 031556Z AUTO 15010KT 9999 -RA BKN022 07/07 A2892 RMK AO2 RAE18RAB35 CIG 022V029 SLP797 P0006 T00660066 FZRANO $
  • 031540Z AUTO 16010KT 9999 -RA SCT017 BKN024 BKN029 07/07 A2893 RMK AO2 RAE18RAB35 CIG 024V030 SLP800 FZRANO $
  • 031518Z AUTO 17009KT 9999 BKN017 07/07 A2895 RMK AO2 RAE18 SLP807 FZRANO $
  • 031516Z AUTO 17007KT 9999 -RA BKN017 06/06 A2895 RMK AO2 SLP807 FZRANO $
  • 031456Z AUTO 16007KT 9999 -RA SCT011 BKN017 BKN023 06/06 A2897 RMK AO2 CIG 010V021 SLP814 P0010 60017 T00630063 57064 FZRANO $
  • 031433Z 18009KT 9999 -RA BKN021 06/06 A2899 RMK AO2A SLP820 FZRANO $
  • 031356Z 15009KT 9999 -RA SCT021 BKN026 06/06 A2902 RMK AO2A RAE34RAB51 SLP831 P0004 T00620062 FZRANO $
  • 031334Z AUTO 17010G17KT 9999 SCT017 SCT023 06/06 A2904 RMK AO2 RAE34 SLP837 FZRANO $

TAF TAF EGUN
Valide du 03 à 12h jusqu'au 04 à 18h UTC


031200Z 0312/0418 16012G20KT 8000 -RA OVC012 620129 QNH2911INS
BECMG 0319/0320 27009KT 9999 NSW OVC005 QNH2874INS
BECMG 0403/0404 32009KT 8000 -RA OVC005 640208 QNH2873INS
BECMG 0407/0408 27010G20KT 6000 -RASN OVC005 640108 QNH2885INS
BECMG 0414/0415 20010G20KT 9999 NSW SCT010 BKN020 QNH2896INS TX07/0312Z TN03/0403Z



MET'MAP, la Météo Aéronautique d'un coup d'oeil ! - Copyright ORBIFLY Décembre 2007 - Disclaimer

ORBIFLY MET'MAP TEAM :

Programmation & Développement : Alexandra Zaïnal
Sur une idée originale de : Baudouin d'Aumeries
Assistance à la programmation : Marc-Olivier Méhu
Soutien technique & logistique : Manuel Goepfert

Contact : metmap@orbifly.com




SOURCES & CREDITS :

   NOAA